createdAt,value
2023-10-09T00:02:13.576Z,12.47
2023-10-09T00:04:43.609Z,12.44
2023-10-09T00:07:11.693Z,12.57
2023-10-09T00:09:48.862Z,12.57
2023-10-09T00:12:24.361Z,12.57
2023-10-09T00:14:51.973Z,12.56
2023-10-09T00:17:22.593Z,12.67
2023-10-09T00:19:51.095Z,12.60
2023-10-09T00:22:27.663Z,12.67
2023-10-09T00:25:13.447Z,12.77
2023-10-09T00:27:47.425Z,12.77
2023-10-09T00:30:19.668Z,12.78
2023-10-09T00:33:07.489Z,12.83
2023-10-09T00:35:38.970Z,12.88
2023-10-09T00:38:21.233Z,12.92
2023-10-09T00:40:57.343Z,12.97
2023-10-09T00:43:30.984Z,12.93
2023-10-09T00:46:13.317Z,12.93
2023-10-09T00:48:43.022Z,12.88
2023-10-09T00:51:20.099Z,12.87
2023-10-09T00:53:52.429Z,12.83
2023-10-09T00:56:29.719Z,12.82
2023-10-09T00:59:07.871Z,12.79
2023-10-09T01:01:49.776Z,12.71
2023-10-09T01:04:18.791Z,12.63
2023-10-09T01:07:09.226Z,12.58
2023-10-09T01:09:39.654Z,12.53
2023-10-09T01:12:06.738Z,12.48
2023-10-09T01:14:42.375Z,12.42
2023-10-09T01:17:10.386Z,12.38
2023-10-09T01:19:37.882Z,12.38
2023-10-09T01:22:17.497Z,12.31
2023-10-09T01:24:44.981Z,12.26
2023-10-09T01:27:18.138Z,12.15
2023-10-09T01:29:47.349Z,12.28
2023-10-09T01:32:21.114Z,12.28
2023-10-09T01:34:51.600Z,12.28
2023-10-09T01:37:24.389Z,12.34
2023-10-09T01:40:21.233Z,12.32
2023-10-09T01:42:48.229Z,12.12
2023-10-09T01:45:21.472Z,12.42
2023-10-09T01:47:53.180Z,12.52
2023-10-09T01:50:32.338Z,12.42
2023-10-09T01:53:02.992Z,12.51
2023-10-09T01:55:40.935Z,12.54
2023-10-09T01:58:23.870Z,12.52
2023-10-09T02:00:57.930Z,12.59
2023-10-09T02:03:25.833Z,12.58
2023-10-09T02:06:18.131Z,12.62
2023-10-09T02:08:50.878Z,12.67
2023-10-09T02:11:36.902Z,12.77
2023-10-09T02:14:20.241Z,12.82
2023-10-09T02:17:03.754Z,12.80
2023-10-09T02:19:38.916Z,12.76
2023-10-09T02:22:14.510Z,12.85
2023-10-09T02:24:52.681Z,12.88
2023-10-09T02:27:38.922Z,12.88
2023-10-09T02:30:21.074Z,12.88
2023-10-09T02:32:53.914Z,12.93
2023-10-09T02:35:29.760Z,12.94
2023-10-09T02:37:59.146Z,13.01
2023-10-09T02:40:33.857Z,12.92
2023-10-09T02:43:00.858Z,12.99
2023-10-09T02:45:33.963Z,12.94
2023-10-09T02:48:01.553Z,13.10
2023-10-09T02:50:29.960Z,13.04
2023-10-09T02:53:02.150Z,13.05
2023-10-09T02:55:29.146Z,13.06
2023-10-09T02:58:12.167Z,13.01
2023-10-09T03:00:38.811Z,12.99
2023-10-09T03:03:09.081Z,13.05
2023-10-09T03:05:39.545Z,13.01
2023-10-09T03:08:06.378Z,13.01
2023-10-09T03:10:35.295Z,12.96
2023-10-09T03:13:04.339Z,12.93
2023-10-09T03:15:36.937Z,12.93
2023-10-09T03:18:06.049Z,12.92
2023-10-09T03:20:33.014Z,12.87
2023-10-09T03:23:02.513Z,12.77
2023-10-09T03:25:29.374Z,12.73
2023-10-09T03:27:59.965Z,12.73
2023-10-09T03:30:26.702Z,12.50
2023-10-09T03:32:55.314Z,12.67
2023-10-09T03:35:26.985Z,12.73
2023-10-09T03:37:58.530Z,12.72
2023-10-09T03:40:26.108Z,12.73
2023-10-09T03:42:53.904Z,12.81
2023-10-09T03:45:27.324Z,12.78
2023-10-09T03:48:12.550Z,12.79
2023-10-09T03:50:39.499Z,12.80
2023-10-09T03:53:12.532Z,12.71
2023-10-09T03:55:40.787Z,12.73
2023-10-09T03:58:08.583Z,12.87
2023-10-09T04:00:46.403Z,12.81
2023-10-09T04:03:15.635Z,12.89
2023-10-09T04:05:44.420Z,12.89
2023-10-09T04:08:21.284Z,12.96
2023-10-09T04:10:57.098Z,13.06
2023-10-09T04:13:33.723Z,13.14
2023-10-09T04:16:12.529Z,13.18
2023-10-09T04:18:40.964Z,13.21
2023-10-09T04:21:20.841Z,13.19
2023-10-09T04:24:14.515Z,13.24
2023-10-09T04:26:48.317Z,13.30
2023-10-09T04:29:28.481Z,13.20
2023-10-09T04:32:01.736Z,13.19
2023-10-09T04:34:28.818Z,13.24
2023-10-09T04:37:02.179Z,13.25
2023-10-09T04:39:32.233Z,13.22
2023-10-09T04:42:18.116Z,13.21
2023-10-09T04:45:03.985Z,13.28
2023-10-09T04:47:50.589Z,13.28
2023-10-09T04:50:20.078Z,13.25
2023-10-09T04:52:53.162Z,13.23
2023-10-09T04:55:26.083Z,13.30
2023-10-09T04:58:11.373Z,13.17
2023-10-09T05:00:58.264Z,13.23
2023-10-09T05:03:40.609Z,13.24
2023-10-09T05:06:42.807Z,13.29
2023-10-09T05:09:10.530Z,13.21
2023-10-09T05:11:55.262Z,13.20
2023-10-09T05:14:28.230Z,13.25
2023-10-09T05:16:56.152Z,13.31
2023-10-09T05:19:34.761Z,13.29
2023-10-09T05:22:08.881Z,13.26
2023-10-09T05:24:48.566Z,13.21
2023-10-09T05:27:25.733Z,13.25
2023-10-09T05:30:13.927Z,13.34
2023-10-09T05:32:49.580Z,13.30
2023-10-09T05:35:31.085Z,13.33
2023-10-09T05:38:05.608Z,13.33
2023-10-09T05:40:32.548Z,13.34
2023-10-09T05:43:00.611Z,13.36
2023-10-09T05:45:47.094Z,13.24
2023-10-09T05:48:13.868Z,13.37
2023-10-09T05:51:00.875Z,13.40
2023-10-09T05:53:47.519Z,13.39
2023-10-09T05:56:46.871Z,13.32
2023-10-09T05:59:31.918Z,13.38
2023-10-09T06:01:58.577Z,13.39
2023-10-09T06:04:44.372Z,13.44
2023-10-09T06:07:15.224Z,13.40
2023-10-09T06:09:51.472Z,13.37
2023-10-09T06:12:33.953Z,13.35
2023-10-09T06:15:32.956Z,13.38
2023-10-09T06:18:19.724Z,13.37
2023-10-09T06:21:04.791Z,13.32
2023-10-09T06:23:49.780Z,13.39
2023-10-09T06:26:25.981Z,13.38
2023-10-09T06:29:13.224Z,13.41
2023-10-09T06:31:58.865Z,13.38
2023-10-09T06:34:36.620Z,13.38
2023-10-09T06:37:29.226Z,13.37
2023-10-09T06:39:57.485Z,13.29
2023-10-09T06:42:40.039Z,13.19
2023-10-09T06:45:15.710Z,13.28
2023-10-09T06:47:43.109Z,13.29
2023-10-09T06:50:21.923Z,13.26
2023-10-09T06:52:58.574Z,13.32
2023-10-09T06:55:49.551Z,13.30
2023-10-09T06:58:29.420Z,13.35
2023-10-09T07:01:00.517Z,13.32
2023-10-09T07:03:31.303Z,13.38
2023-10-09T07:06:26.610Z,13.37
2023-10-09T07:09:06.399Z,13.36
2023-10-09T07:11:42.834Z,13.37
2023-10-09T07:14:32.910Z,13.39
2023-10-09T07:17:16.850Z,13.44
2023-10-09T07:19:45.159Z,13.39
2023-10-09T07:22:22.042Z,13.38
2023-10-09T07:24:59.315Z,13.39
2023-10-09T07:27:50.994Z,13.28
2023-10-09T07:30:31.802Z,13.19
2023-10-09T07:33:12.184Z,13.17
2023-10-09T07:35:55.375Z,13.20
2023-10-09T07:38:24.488Z,13.20
2023-10-09T07:41:07.743Z,13.28
2023-10-09T07:43:45.320Z,13.28
2023-10-09T07:46:31.641Z,13.41
2023-10-09T07:49:10.021Z,13.36
2023-10-09T07:51:45.398Z,13.42
2023-10-09T07:54:16.010Z,13.46
2023-10-09T07:56:47.540Z,13.51
2023-10-09T07:59:19.394Z,13.36
2023-10-09T08:01:54.165Z,13.40
2023-10-09T08:04:41.234Z,13.32
2023-10-09T08:08:06.485Z,13.41
2023-10-09T08:10:18.390Z,13.36
2023-10-09T08:12:48.501Z,13.41
2023-10-09T08:15:21.450Z,13.55
2023-10-09T08:17:55.963Z,13.59
2023-10-09T08:20:27.069Z,13.54
2023-10-09T08:22:57.184Z,13.56
2023-10-09T08:25:28.073Z,13.74
2023-10-09T08:28:33.427Z,13.68
2023-10-09T08:31:20.076Z,13.47
2023-10-09T08:36:32.500Z,13.97
2023-10-09T08:39:00.284Z,14.38
2023-10-09T08:41:31.420Z,14.48
2023-10-09T08:43:58.990Z,14.45
2023-10-09T08:46:30.619Z,14.47
2023-10-09T08:49:00.230Z,14.51
2023-10-09T08:51:28.543Z,14.66
2023-10-09T08:53:56.003Z,14.77
2023-10-09T08:56:23.966Z,14.89
2023-10-09T08:58:52.696Z,14.73
2023-10-09T09:01:23.032Z,14.30
2023-10-09T09:03:51.642Z,14.61
2023-10-09T09:06:21.363Z,14.70
2023-10-09T09:08:48.491Z,14.38
2023-10-09T09:11:18.091Z,14.45
2023-10-09T09:13:51.566Z,14.51
2023-10-09T09:16:31.941Z,14.35
2023-10-09T09:19:11.803Z,14.60
2023-10-09T09:22:13.668Z,14.55
2023-10-09T09:24:46.882Z,14.42
2023-10-09T09:27:19.886Z,14.59
2023-10-09T09:29:54.037Z,14.47
2023-10-09T09:32:37.333Z,14.44
2023-10-09T09:35:07.364Z,14.60
2023-10-09T09:37:44.106Z,14.79
2023-10-09T09:40:35.288Z,14.76
2023-10-09T09:43:07.103Z,14.97
2023-10-09T09:45:37.360Z,15.03
2023-10-09T09:48:07.924Z,14.96
2023-10-09T09:50:38.255Z,14.93
2023-10-09T09:53:09.442Z,14.84
2023-10-09T09:55:43.422Z,14.85
2023-10-09T09:58:19.977Z,14.78
2023-10-09T10:00:53.899Z,14.72
2023-10-09T10:03:30.850Z,14.87
2023-10-09T10:05:59.273Z,14.97
2023-10-09T10:08:34.093Z,15.02
2023-10-09T10:11:06.798Z,15.01
2023-10-09T10:13:42.703Z,15.18
2023-10-09T10:16:20.392Z,15.29
2023-10-09T10:19:16.414Z,15.13
2023-10-09T10:21:43.510Z,15.18
2023-10-09T10:24:31.934Z,15.38
2023-10-09T10:27:27.425Z,15.25
2023-10-09T10:30:11.061Z,15.38
2023-10-09T10:32:53.049Z,15.35
2023-10-09T10:35:46.972Z,15.50
2023-10-09T10:38:47.166Z,15.45
2023-10-09T10:41:18.785Z,15.52
2023-10-09T10:43:55.488Z,15.50
2023-10-09T10:46:30.329Z,15.49
2023-10-09T10:49:16.469Z,15.50
2023-10-09T10:51:50.432Z,15.69
2023-10-09T10:54:46.828Z,15.81
2023-10-09T10:57:29.761Z,15.80
2023-10-09T11:00:13.426Z,15.73
2023-10-09T11:02:41.721Z,15.95
2023-10-09T11:05:27.383Z,15.67
2023-10-09T11:07:58.858Z,15.60
2023-10-09T11:10:33.052Z,15.82
2023-10-09T11:13:11.649Z,15.62
2023-10-09T11:15:46.202Z,15.76
2023-10-09T11:18:26.167Z,15.91
2023-10-09T11:20:59.022Z,15.88
2023-10-09T11:23:37.322Z,15.83
2023-10-09T11:26:23.894Z,16.01
2023-10-09T11:29:16.638Z,15.87
2023-10-09T11:32:07.797Z,15.83
2023-10-09T11:34:37.570Z,16.22
2023-10-09T11:37:13.299Z,16.39
2023-10-09T11:39:54.939Z,16.79
2023-10-09T11:42:49.798Z,17.03
2023-10-09T11:45:31.123Z,16.85
2023-10-09T11:48:01.027Z,16.74
2023-10-09T11:51:10.473Z,16.81
2023-10-09T11:53:46.327Z,16.69
2023-10-09T11:56:18.068Z,16.69
2023-10-09T11:58:45.168Z,16.66
2023-10-09T12:01:19.093Z,16.80
2023-10-09T12:03:50.970Z,16.74
2023-10-09T12:06:23.959Z,16.84
2023-10-09T12:08:51.242Z,16.78
2023-10-09T12:11:26.042Z,16.70
2023-10-09T12:13:58.079Z,16.61
2023-10-09T12:16:29.895Z,16.53
2023-10-09T12:18:57.358Z,16.57
2023-10-09T12:21:24.891Z,16.74
2023-10-09T12:23:51.616Z,16.57
2023-10-09T12:26:18.302Z,16.49
2023-10-09T12:28:47.694Z,16.47
2023-10-09T12:31:21.324Z,16.46
2023-10-09T12:33:48.906Z,16.59
2023-10-09T12:36:21.189Z,16.53
2023-10-09T12:38:54.985Z,16.35
2023-10-09T12:41:34.786Z,16.48
2023-10-09T12:44:02.574Z,16.49
2023-10-09T12:46:29.540Z,16.45
2023-10-09T12:48:56.567Z,16.17
2023-10-09T12:51:31.309Z,15.94
2023-10-09T12:53:58.796Z,15.89
2023-10-09T12:56:33.995Z,15.68
2023-10-09T12:59:02.262Z,15.05
2023-10-09T13:01:44.134Z,14.96
2023-10-09T13:04:18.827Z,15.11
2023-10-09T13:06:46.980Z,15.15
2023-10-09T13:09:43.936Z,15.10
2023-10-09T13:12:19.606Z,15.01
2023-10-09T13:14:48.595Z,14.89
2023-10-09T13:17:15.360Z,14.93
2023-10-09T13:19:42.204Z,14.89
2023-10-09T13:22:14.434Z,14.85
2023-10-09T13:24:42.834Z,14.81
2023-10-09T13:27:11.142Z,14.79
2023-10-09T13:29:41.423Z,14.88
2023-10-09T13:32:15.974Z,14.90
2023-10-09T13:34:46.973Z,14.78
2023-10-09T13:37:14.712Z,14.62
2023-10-09T13:39:53.457Z,14.41
2023-10-09T13:42:20.567Z,14.42
2023-10-09T13:44:50.094Z,14.44
2023-10-09T13:47:24.501Z,14.39
2023-10-09T13:49:52.222Z,14.44
2023-10-09T13:52:23.304Z,14.68
2023-10-09T13:54:50.970Z,14.65
2023-10-09T13:57:17.938Z,14.64
2023-10-09T13:59:53.722Z,14.55
2023-10-09T14:02:22.622Z,14.68
2023-10-09T14:04:49.837Z,14.60
2023-10-09T14:07:21.825Z,14.57
2023-10-09T14:10:08.244Z,14.30
2023-10-09T14:12:35.733Z,14.39
2023-10-09T14:15:04.961Z,14.51
2023-10-09T14:17:31.778Z,14.52
2023-10-09T14:20:17.513Z,14.54
2023-10-09T14:22:46.595Z,14.86
2023-10-09T14:25:16.765Z,14.90
2023-10-09T14:27:43.570Z,15.18
2023-10-09T14:30:14.153Z,15.17
2023-10-09T14:32:52.810Z,15.02
2023-10-09T14:35:22.902Z,15.03
2023-10-09T14:37:49.818Z,15.13
2023-10-09T14:40:22.441Z,14.81
2023-10-09T14:42:56.813Z,14.90
2023-10-09T14:45:28.185Z,14.66
2023-10-09T14:47:55.813Z,14.60
2023-10-09T14:50:23.638Z,14.74
2023-10-09T14:52:52.033Z,14.86
2023-10-09T14:55:22.494Z,14.79
2023-10-09T14:57:53.748Z,14.89
2023-10-09T15:00:24.600Z,14.51
2023-10-09T15:02:52.207Z,14.70
2023-10-09T15:05:19.236Z,14.63
2023-10-09T15:07:47.654Z,14.54
2023-10-09T15:10:17.126Z,14.67
2023-10-09T15:12:49.937Z,14.78
2023-10-09T15:15:17.118Z,14.76
2023-10-09T15:17:49.779Z,14.41
2023-10-09T15:20:18.096Z,14.38
2023-10-09T15:22:47.290Z,14.31
2023-10-09T15:25:16.095Z,14.36
2023-10-09T15:27:43.901Z,14.44
2023-10-09T15:30:15.203Z,14.34
2023-10-09T15:32:42.792Z,14.20
2023-10-09T15:35:14.654Z,14.33
2023-10-09T15:37:42.844Z,14.32
2023-10-09T15:40:16.323Z,14.43
2023-10-09T15:42:44.447Z,14.54
2023-10-09T15:45:13.380Z,14.49
2023-10-09T15:47:41.055Z,14.32
2023-10-09T15:50:13.119Z,14.25
2023-10-09T15:52:40.592Z,14.41
2023-10-09T15:55:14.714Z,14.16
2023-10-09T15:57:42.849Z,14.33
2023-10-09T16:00:19.215Z,14.36
2023-10-09T16:02:48.578Z,14.34
2023-10-09T16:05:17.833Z,14.35
2023-10-09T16:07:45.078Z,14.33
2023-10-09T16:10:12.446Z,14.47
2023-10-09T16:12:42.078Z,14.50
2023-10-09T16:15:09.939Z,14.24
2023-10-09T16:17:38.682Z,14.28
2023-10-09T16:20:14.689Z,14.20
2023-10-09T16:22:41.882Z,14.17
2023-10-09T16:25:10.769Z,14.29
2023-10-09T16:27:37.500Z,14.27
2023-10-09T16:30:07.006Z,14.48
2023-10-09T16:32:34.169Z,14.40
2023-10-09T16:35:00.982Z,14.22
2023-10-09T16:37:27.675Z,14.36
2023-10-09T16:39:59.422Z,14.34
2023-10-09T16:42:26.152Z,14.29
2023-10-09T16:44:52.828Z,14.33
2023-10-09T16:47:19.664Z,14.22
2023-10-09T16:49:52.689Z,14.30
2023-10-09T16:52:24.860Z,14.32
2023-10-09T16:54:55.051Z,14.30
2023-10-09T16:57:22.059Z,14.28
2023-10-09T16:59:50.327Z,14.34
2023-10-09T17:02:23.901Z,14.18
2023-10-09T17:04:53.969Z,14.22
2023-10-09T17:07:24.927Z,14.37
2023-10-09T17:09:51.616Z,14.32
2023-10-09T17:12:18.864Z,14.35
2023-10-09T17:14:50.334Z,14.47
2023-10-09T17:17:19.687Z,14.53
2023-10-09T17:19:49.583Z,14.53
2023-10-09T17:22:19.015Z,14.59
2023-10-09T17:24:47.928Z,14.44
2023-10-09T17:27:19.052Z,14.46
2023-10-09T17:29:47.709Z,14.49
2023-10-09T17:32:19.737Z,14.35
2023-10-09T17:34:46.609Z,14.39
2023-10-09T17:37:13.467Z,14.34
2023-10-09T17:39:40.245Z,14.39
2023-10-09T17:42:09.408Z,14.32
2023-10-09T17:44:36.277Z,14.30
2023-10-09T17:47:03.038Z,14.44
2023-10-09T17:49:31.800Z,14.54
2023-10-09T17:52:01.236Z,14.40
2023-10-09T17:54:29.630Z,14.47
2023-10-09T17:56:58.220Z,14.44
2023-10-09T17:59:25.372Z,14.27
2023-10-09T18:01:52.279Z,14.35
2023-10-09T18:04:19.769Z,14.40
2023-10-09T18:06:49.216Z,14.30
2023-10-09T18:09:18.969Z,14.47
2023-10-09T18:11:47.085Z,14.40
2023-10-09T18:14:15.291Z,14.41
2023-10-09T18:16:43.270Z,14.46
2023-10-09T18:19:13.120Z,14.38
2023-10-09T18:21:42.583Z,14.34
2023-10-09T18:24:15.466Z,14.43
2023-10-09T18:26:42.864Z,14.41
2023-10-09T18:29:13.488Z,14.46
2023-10-09T18:31:42.173Z,14.38
2023-10-09T18:34:09.444Z,14.35
2023-10-09T18:36:38.369Z,14.42
2023-10-09T18:39:05.652Z,14.44
2023-10-09T18:41:32.381Z,14.40
2023-10-09T18:44:02.029Z,14.37
2023-10-09T18:46:28.800Z,14.47
2023-10-09T18:49:01.705Z,14.36
2023-10-09T18:51:30.719Z,14.49
2023-10-09T18:54:01.662Z,14.51
2023-10-09T18:56:29.678Z,14.40
2023-10-09T18:58:57.853Z,14.41
2023-10-09T19:01:24.754Z,14.43
2023-10-09T19:03:51.840Z,14.49
2023-10-09T19:06:19.657Z,14.51
2023-10-09T19:08:49.171Z,14.50
2023-10-09T19:11:17.152Z,14.46
2023-10-09T19:13:44.711Z,14.47
2023-10-09T19:16:13.011Z,14.51
2023-10-09T19:18:40.194Z,14.48
2023-10-09T19:21:10.446Z,14.52
2023-10-09T19:23:41.801Z,14.42
2023-10-09T19:26:10.090Z,14.50
2023-10-09T19:28:39.148Z,14.52
2023-10-09T19:31:07.317Z,14.56
2023-10-09T19:33:38.916Z,14.53
2023-10-09T19:36:12.788Z,14.51
2023-10-09T19:38:40.115Z,14.48
2023-10-09T19:41:07.766Z,14.49
2023-10-09T19:43:35.390Z,14.53
2023-10-09T19:46:08.796Z,14.59
2023-10-09T19:48:36.033Z,14.66
2023-10-09T19:51:08.034Z,14.62
2023-10-09T19:53:37.784Z,14.67
2023-10-09T19:56:06.744Z,14.64
2023-10-09T19:58:33.547Z,14.66
2023-10-09T20:01:00.237Z,14.73
2023-10-09T20:03:29.227Z,14.64
2023-10-09T20:05:56.076Z,14.63
2023-10-09T20:08:22.826Z,14.58
2023-10-09T20:10:50.740Z,14.64
2023-10-09T20:13:17.575Z,14.66
2023-10-09T20:15:48.032Z,14.69
2023-10-09T20:18:14.717Z,14.75
2023-10-09T20:20:46.962Z,14.68
2023-10-09T20:23:21.977Z,14.71
2023-10-09T20:25:59.890Z,14.69
2023-10-09T20:28:27.186Z,14.68
2023-10-09T20:30:54.311Z,14.66
2023-10-09T20:33:23.891Z,14.71
2023-10-09T20:35:52.502Z,14.71
2023-10-09T20:38:19.254Z,14.76
2023-10-09T20:40:46.084Z,14.71
2023-10-09T20:43:12.934Z,14.68
2023-10-09T20:45:40.654Z,14.71
2023-10-09T20:48:07.421Z,14.72
2023-10-09T20:50:34.195Z,14.73
2023-10-09T20:53:01.014Z,14.76
2023-10-09T20:55:27.763Z,14.75
2023-10-09T20:57:57.934Z,14.78
2023-10-09T21:00:26.945Z,14.81
2023-10-09T21:02:55.701Z,14.81
2023-10-09T21:05:26.736Z,14.79
2023-10-09T21:07:54.424Z,14.77
2023-10-09T21:10:22.379Z,14.74
2023-10-09T21:12:50.634Z,14.76
2023-10-09T21:15:18.972Z,14.80
2023-10-09T21:17:46.614Z,14.79
2023-10-09T21:20:18.060Z,14.85
2023-10-09T21:22:51.491Z,14.69
2023-10-09T21:25:21.772Z,14.72
2023-10-09T21:27:49.349Z,14.81
2023-10-09T21:30:16.950Z,14.75
2023-10-09T21:32:44.693Z,14.76
2023-10-09T21:35:19.899Z,14.76
2023-10-09T21:37:54.897Z,14.72
2023-10-09T21:40:29.859Z,14.69
2023-10-09T21:42:58.319Z,14.62
2023-10-09T21:45:26.632Z,14.62
2023-10-09T21:47:57.333Z,14.53
2023-10-09T21:50:26.462Z,14.40
2023-10-09T21:52:58.289Z,14.45
2023-10-09T21:55:26.872Z,14.34
2023-10-09T21:57:56.427Z,14.28
2023-10-09T22:00:32.489Z,14.24
2023-10-09T22:03:08.855Z,14.20
2023-10-09T22:05:43.223Z,14.21
2023-10-09T22:08:11.581Z,14.22
2023-10-09T22:10:39.526Z,14.18
2023-10-09T22:13:09.390Z,14.17
2023-10-09T22:15:36.036Z,14.28
2023-10-09T22:18:10.214Z,14.30
2023-10-09T22:20:36.990Z,14.31
2023-10-09T22:23:04.430Z,14.22
2023-10-09T22:25:32.033Z,14.39
2023-10-09T22:28:04.843Z,14.42
2023-10-09T22:30:36.289Z,14.51
2023-10-09T22:33:04.457Z,14.47
2023-10-09T22:35:36.019Z,14.48
2023-10-09T22:38:10.303Z,14.58
2023-10-09T22:40:40.089Z,14.65
2023-10-09T22:43:12.045Z,14.67
2023-10-09T22:45:50.279Z,14.74
2023-10-09T22:48:18.108Z,14.77
2023-10-09T22:50:48.789Z,14.74
2023-10-09T22:53:38.916Z,14.80
2023-10-09T22:56:14.416Z,14.84
2023-10-09T22:58:52.292Z,14.85
2023-10-09T23:01:23.892Z,14.86
2023-10-09T23:04:11.031Z,14.70
2023-10-09T23:06:41.952Z,14.44
2023-10-09T23:09:18.256Z,14.44
2023-10-09T23:11:55.290Z,14.48
2023-10-09T23:14:27.264Z,14.48
2023-10-09T23:16:58.245Z,14.51
2023-10-09T23:19:45.370Z,14.48
2023-10-09T23:22:13.812Z,14.54
2023-10-09T23:24:51.388Z,14.54
2023-10-09T23:27:38.625Z,14.55
2023-10-09T23:30:25.472Z,14.53
2023-10-09T23:32:53.647Z,14.53
2023-10-09T23:35:22.133Z,14.50
2023-10-09T23:38:09.047Z,14.53
2023-10-09T23:40:42.968Z,14.49
2023-10-09T23:43:14.338Z,14.47
2023-10-09T23:45:41.950Z,14.46
2023-10-09T23:48:27.674Z,14.47
2023-10-09T23:50:57.164Z,14.51
2023-10-09T23:53:27.808Z,14.47
2023-10-09T23:55:54.933Z,14.41
2023-10-09T23:58:22.891Z,14.39
